Time;durP1;ratioP1;P1;durP2;ratioP2;P2;SDS_P1;SDS_P2;PMS_P1;PMS_P2;Temp;Humidity;BMP_temperature;BMP_pressure;BME280_temperature;BME280_humidity;BME280_pressure;Samples;Min_cycle;Max_cycle;Signal;HPM_P1;HPM_P2
2022/07/06 00:02:44;;;;;;;7.07;1.42;;;;;;;15.66;56.36;101145.09;10136507;29;20056;-77
2022/07/06 00:07:47;;;;;;;2.00;1.23;;;;;;;15.60;56.21;101150.19;10135582;29;20059;-77
2022/07/06 00:12:50;;;;;;;3.25;1.20;;;;;;;15.65;56.22;101148.78;10138504;29;20067;-77
2022/07/06 00:17:54;;;;;;;2.67;1.50;;;;;;;15.61;56.09;101144.66;10135627;29;20131;-77
2022/07/06 00:22:57;;;;;;;4.68;1.50;;;;;;;15.58;56.89;101150.34;10137122;29;20047;-77
2022/07/06 00:28:00;;;;;;;3.22;1.30;;;;;;;15.64;55.98;101149.78;10121146;29;21273;-77
2022/07/06 00:33:04;;;;;;;4.07;2.03;;;;;;;15.31;56.36;101145.50;10118331;29;21557;-77
2022/07/06 00:38:07;;;;;;;3.65;1.48;;;;;;;15.02;57.47;101148.94;10151592;29;20056;-77
2022/07/06 00:43:10;;;;;;;4.10;1.63;;;;;;;14.99;57.65;101148.34;10138496;29;20066;-77
2022/07/06 00:48:14;;;;;;;3.45;1.90;;;;;;;14.74;58.03;101155.91;10137189;29;20095;-77
2022/07/06 00:53:18;;;;;;;3.90;2.22;;;;;;;14.52;58.75;101161.47;10118154;29;20440;-77
2022/07/06 00:58:21;;;;;;;2.22;1.40;;;;;;;14.66;58.39;101168.38;10117942;29;20134;-77
2022/07/06 01:03:26;;;;;;;1.90;1.40;;;;;;;14.75;58.29;101157.59;10137230;29;20712;-77
2022/07/06 01:08:30;;;;;;;3.83;1.67;;;;;;;14.78;57.71;101157.38;10136726;29;20127;-76
2022/07/06 01:13:34;;;;;;;4.95;1.73;;;;;;;14.65;58.21;101153.16;10134983;29;20059;-77
2022/07/06 01:18:38;;;;;;;3.78;1.45;;;;;;;14.49;58.77;101162.56;10119269;29;20055;-77
2022/07/06 01:23:46;;;;;;;3.55;1.65;;;;;;;14.41;58.96;101161.50;10116527;29;21263;-77
2022/07/06 01:28:51;;;;;;;2.28;1.80;;;;;;;14.45;58.98;101162.97;10140516;29;20591;-77
2022/07/06 01:33:56;;;;;;;2.80;1.52;;;;;;;14.26;59.85;101158.22;10135767;29;20112;-77
2022/07/06 01:39:00;;;;;;;4.50;1.60;;;;;;;14.13;60.07;101151.16;10116509;29;20051;-77
2022/07/06 01:44:05;;;;;;;4.43;1.52;;;;;;;14.38;59.63;101149.97;10099847;29;20093;-77
2022/07/06 01:49:08;;;;;;;3.97;1.50;;;;;;;14.62;59.11;101151.56;10136632;29;20502;-77
2022/07/06 01:54:12;;;;;;;3.75;1.50;;;;;;;14.45;59.07;101149.44;10122870;29;20051;-78
2022/07/06 01:59:16;;;;;;;5.05;2.15;;;;;;;14.28;59.56;101154.41;10120879;29;20060;-77
2022/07/06 02:04:19;;;;;;;2.97;1.75;;;;;;;14.19;59.82;101148.94;10119214;29;20063;-77
2022/07/06 02:09:24;;;;;;;3.13;1.60;;;;;;;14.21;60.27;101146.97;10130679;29;20052;-77
2022/07/06 02:14:27;;;;;;;3.75;1.80;;;;;;;14.35;59.94;101160.16;10137201;29;20756;-77
2022/07/06 02:19:30;;;;;;;5.53;1.52;;;;;;;14.49;59.24;101157.16;10115906;29;20186;-77
2022/07/06 02:24:34;;;;;;;2.55;1.42;;;;;;;13.93;61.10;101158.25;10145208;29;21234;-78
2022/07/06 02:29:37;;;;;;;10.35;1.95;;;;;;;14.32;60.39;101163.97;10165138;29;20091;-77
2022/07/06 02:34:41;;;;;;;2.55;1.55;;;;;;;14.62;59.60;101162.38;10109752;29;20230;-77
2022/07/06 02:39:45;;;;;;;4.72;2.00;;;;;;;14.69;59.07;101163.56;10128898;29;20052;-77
2022/07/06 02:44:48;;;;;;;6.80;2.17;;;;;;;14.31;60.14;101154.13;10129157;29;20056;-78
2022/07/06 02:49:52;;;;;;;3.70;2.33;;;;;;;13.92;61.58;101152.94;10120195;29;20048;-77
2022/07/06 02:54:58;;;;;;;4.18;2.13;;;;;;;13.60;63.08;101151.09;10122835;29;20055;-78
2022/07/06 03:00:01;;;;;;;2.95;1.75;;;;;;;13.43;63.91;101152.44;10123726;29;20389;-77
2022/07/06 03:05:07;;;;;;;5.22;2.60;;;;;;;13.51;63.69;101157.22;10133573;29;20048;-77
2022/07/06 03:10:12;;;;;;;4.50;2.22;;;;;;;13.62;62.96;101153.63;10142925;29;20055;-77
2022/07/06 03:15:15;;;;;;;2.83;2.10;;;;;;;14.08;62.01;101163.34;10126031;29;20048;-77
2022/07/06 03:20:21;;;;;;;7.03;2.13;;;;;;;13.63;62.88;101167.03;10137980;29;20056;-77
2022/07/06 03:25:25;;;;;;;6.03;2.22;;;;;;;13.50;63.40;101171.69;10151578;29;20064;-77
2022/07/06 03:30:29;;;;;;;5.30;1.77;;;;;;;13.34;63.99;101174.75;10129308;29;20603;-77
2022/07/06 03:35:33;;;;;;;6.90;2.42;;;;;;;12.53;65.73;101173.91;10127291;29;20103;-77
2022/07/06 03:40:39;;;;;;;4.78;2.25;;;;;;;12.46;66.35;101179.88;10128622;29;20047;-77
2022/07/06 03:45:43;;;;;;;6.00;2.03;;;;;;;12.80;65.47;101176.28;10129901;29;20156;-78
2022/07/06 03:50:46;;;;;;;8.27;2.35;;;;;;;13.10;64.45;101176.69;10128318;29;20056;-77
2022/07/06 04:01:07;;;;;;;6.53;2.00;;;;;;;12.53;66.24;101186.50;10131261;29;20060;-77
2022/07/06 04:06:10;;;;;;;5.40;1.90;;;;;;;12.62;65.98;101191.19;10144586;29;20055;-77
2022/07/06 04:11:15;;;;;;;4.80;1.92;;;;;;;12.96;64.60;101192.13;10130043;29;20115;-78
2022/07/06 04:16:18;;;;;;;7.32;2.40;;;;;;;12.81;64.85;101187.94;10127825;29;20047;-77
2022/07/06 04:21:22;;;;;;;5.45;1.80;;;;;;;12.83;65.58;101192.25;10142353;29;21801;-77
2022/07/06 04:26:26;;;;;;;4.47;1.80;;;;;;;12.47;66.44;101192.38;10122276;29;20526;-77
2022/07/06 04:31:31;;;;;;;6.32;1.67;;;;;;;12.75;65.95;101194.69;10125706;29;20453;-78
2022/07/06 04:36:35;;;;;;;7.40;2.35;;;;;;;12.45;66.90;101183.53;10142408;29;20052;-77
2022/07/06 04:41:39;;;;;;;7.00;2.25;;;;;;;13.03;65.96;101185.28;10140567;29;20056;-77
2022/07/06 04:46:42;;;;;;;6.78;2.33;;;;;;;13.32;64.78;101175.84;10137263;29;20051;-77
2022/07/06 04:51:45;;;;;;;5.75;1.77;;;;;;;13.24;65.18;101189.94;10116805;29;20052;-79
2022/07/06 04:56:50;;;;;;;7.25;2.08;;;;;;;13.38;65.29;101178.94;10112222;29;20063;-78
2022/07/06 05:01:53;;;;;;;4.85;1.60;;;;;;;13.53;64.45;101182.25;10125603;29;21608;-79
2022/07/06 05:06:57;;;;;;;4.25;1.70;;;;;;;13.55;65.15;101187.50;10130014;29;20429;-78
2022/07/06 05:12:01;;;;;;;4.10;1.30;;;;;;;13.71;64.49;101191.56;10120681;29;20188;-79
2022/07/06 05:17:04;;;;;;;4.35;2.00;;;;;;;14.37;62.14;101185.19;10150438;29;20063;-76
2022/07/06 05:22:08;;;;;;;4.85;1.63;;;;;;;14.66;61.90;101187.31;10169359;29;20048;-79
2022/07/06 05:27:13;;;;;;;6.22;1.73;;;;;;;14.73;61.04;101189.38;10110814;29;20725;-79
2022/07/06 05:32:16;;;;;;;4.22;1.50;;;;;;;15.01;60.61;101184.25;10122551;29;20091;-77
2022/07/06 05:37:20;;;;;;;3.47;1.33;;;;;;;15.18;60.16;101188.19;10121932;29;20060;-78
2022/07/06 05:42:25;;;;;;;7.15;1.50;;;;;;;15.31;59.36;101199.66;10120103;29;20430;-77
2022/07/06 05:52:57;;;;;;;3.78;1.50;;;;;;;14.52;61.98;101200.16;10140188;29;20044;-78
2022/07/06 05:58:02;;;;;;;;;;;;;;;14.77;61.14;101204.31;10118404;29;20223;-77
2022/07/06 06:03:07;;;;;;;6.82;1.50;;;;;;;15.08;61.23;101195.41;10113823;29;20024;-77
2022/07/06 06:08:10;;;;;;;3.33;1.63;;;;;;;15.17;60.27;101198.16;10132539;29;20060;-77
2022/07/06 06:13:15;;;;;;;3.75;1.33;;;;;;;15.45;58.11;101212.84;10149520;29;20711;-77
2022/07/06 06:18:19;;;;;;;5.97;1.25;;;;;;;14.89;58.36;101217.78;10157203;29;20064;-79
2022/07/06 06:23:23;;;;;;;4.65;1.50;;;;;;;15.62;57.91;101224.88;10156982;29;20052;-79
2022/07/06 06:28:27;;;;;;;3.83;1.27;;;;;;;15.98;55.88;101221.72;10141187;29;20132;-79
2022/07/06 06:33:30;;;;;;;1.83;1.10;;;;;;;16.09;56.37;101230.56;10142138;29;20052;-78
2022/07/06 06:38:32;;;;;;;5.13;1.10;;;;;;;15.84;56.88;101223.81;10143302;29;20040;-79
2022/07/06 06:43:37;;;;;;;4.80;1.35;;;;;;;16.04;55.52;101229.28;10149186;29;20088;-79
2022/07/06 06:48:47;;;;;;;6.60;1.27;;;;;;;16.63;54.24;101238.38;10150681;29;20044;-78
2022/07/06 06:53:50;;;;;;;4.95;1.30;;;;;;;16.36;55.08;101235.34;10150243;29;20051;-79
2022/07/06 06:58:54;;;;;;;5.75;1.33;;;;;;;15.80;56.14;101246.78;10147006;29;20056;-79
2022/07/06 07:04:17;;;;;;;3.30;0.95;;;;;;;15.91;55.17;101251.22;10149402;29;20071;-78
2022/07/06 07:09:20;;;;;;;5.28;1.27;;;;;;;16.15;54.25;101249.00;10151394;29;20506;-78
2022/07/06 07:14:24;;;;;;;6.65;0.85;;;;;;;16.23;53.90;101256.41;10134228;29;20073;-79
2022/07/06 07:19:27;;;;;;;4.75;0.80;;;;;;;16.63;53.21;101251.94;10152181;29;20103;-78
2022/07/06 07:24:30;;;;;;;4.05;0.70;;;;;;;16.07;54.21;101261.50;10150577;29;20115;-78
2022/07/06 07:29:34;;;;;;;3.60;0.90;;;;;;;16.66;53.10;101257.91;10149674;29;20103;-78
2022/07/06 07:34:37;;;;;;;6.15;1.00;;;;;;;17.10;51.51;101262.88;10146905;29;20091;-78
2022/07/06 07:39:40;;;;;;;2.85;0.90;;;;;;;17.14;50.60;101258.88;10144581;29;20052;-78
2022/07/06 07:44:44;;;;;;;4.07;0.95;;;;;;;17.44;50.37;101253.25;10141647;29;20150;-77
2022/07/06 07:49:47;;;;;;;2.13;0.60;;;;;;;18.85;48.02;101243.81;10146509;29;21536;-77
2022/07/06 07:54:50;;;;;;;4.28;1.02;;;;;;;18.89;45.98;101252.50;10163520;29;20084;-77
2022/07/06 08:00:15;;;;;;;6.05;1.00;;;;;;;18.88;47.03;101259.81;10144828;29;20051;-78
2022/07/06 08:05:18;;;;;;;2.35;0.68;;;;;;;17.86;48.85;101270.94;10142203;29;20511;-77
2022/07/06 08:10:21;;;;;;;3.65;0.70;;;;;;;17.51;50.70;101271.66;10140056;29;20055;-77
2022/07/06 08:15:26;;;;;;;5.18;1.38;;;;;;;17.75;49.22;101258.41;10139941;29;20051;-77
2022/07/06 08:20:29;;;;;;;2.80;0.65;;;;;;;17.88;48.42;101256.19;10138618;29;20056;-77
2022/07/06 08:25:32;;;;;;;4.47;1.00;;;;;;;18.06;47.33;101258.13;10141059;29;20063;-78
2022/07/06 08:30:37;;;;;;;2.38;0.80;;;;;;;17.53;48.33;101262.34;10140546;29;20056;-77
2022/07/06 08:35:40;;;;;;;1.00;0.60;;;;;;;17.58;48.65;101260.06;10139815;29;20893;-78
2022/07/06 08:40:46;;;;;;;4.68;1.02;;;;;;;16.88;49.06;101261.34;10138450;29;20048;-77
2022/07/06 08:45:54;;;;;;;8.80;0.85;;;;;;;17.97;46.63;101259.00;10140934;29;20096;-77
2022/07/06 08:50:58;;;;;;;2.00;0.60;;;;;;;17.00;50.00;101258.31;10139821;29;20086;-78
2022/07/06 08:56:02;;;;;;;5.28;1.13;;;;;;;17.77;49.00;101261.84;10140266;29;21549;-77
2022/07/06 09:01:06;;;;;;;3.42;0.80;;;;;;;18.39;48.45;101253.88;10137849;29;20060;-78
2022/07/06 09:06:10;;;;;;;2.38;0.75;;;;;;;18.20;45.94;101252.16;10152352;29;20054;-77
2022/07/06 09:11:14;;;;;;;6.50;1.17;;;;;;;18.42;46.12;101266.31;10176865;29;20108;-77
2022/07/06 09:16:18;;;;;;;2.50;0.98;;;;;;;19.18;44.89;101257.66;10171494;29;20060;-78
2022/07/06 09:21:41;;;;;;;3.53;1.23;;;;;;;19.31;44.78;101252.66;10122740;29;20063;-78
2022/07/06 09:26:43;;;;;;;3.15;0.80;;;;;;;20.68;41.82;101246.16;10123690;29;20052;-78
2022/07/06 09:32:02;;;;;;;2.17;0.52;;;;;;;21.14;40.50;101246.50;10440951;27;20494;-77
2022/07/06 09:37:07;;;;;;;0.65;0.50;;;;;;;19.10;43.16;101250.28;10421298;28;20057;-77
2022/07/06 09:42:10;;;;;;;5.95;0.88;;;;;;;18.17;46.81;101262.50;10416198;28;21141;-77
2022/07/06 09:47:14;;;;;;;2.45;0.75;;;;;;;17.15;49.22;101261.47;10431750;28;20594;-77
2022/07/06 09:52:18;;;;;;;2.70;0.60;;;;;;;16.11;50.83;101257.53;10428060;28;20514;-76
2022/07/06 09:57:22;;;;;;;7.57;1.00;;;;;;;15.81;51.94;101272.00;10432254;28;20051;-77
2022/07/06 10:02:28;;;;;;;3.97;1.15;;;;;;;16.22;52.20;101270.97;10425597;28;20037;-77
2022/07/06 10:07:31;;;;;;;3.53;0.90;;;;;;;15.88;51.32;101267.75;10443478;28;20056;-77
2022/07/06 10:12:35;;;;;;;2.65;0.90;;;;;;;16.37;50.62;101266.03;10431006;28;20537;-77
2022/07/06 10:17:41;;;;;;;4.25;1.60;;;;;;;16.27;51.55;101273.31;10424000;28;20053;-76
2022/07/06 10:22:45;;;;;;;8.68;2.65;;;;;;;16.38;51.50;101275.03;10432405;28;20052;-77
2022/07/06 10:27:48;;;;;;;2.10;0.95;;;;;;;16.66;50.52;101270.63;10438610;28;20563;-76
2022/07/06 10:32:53;;;;;;;3.35;0.90;;;;;;;16.58;49.90;101274.03;10431761;28;20072;-78
2022/07/06 10:38:06;;;;;;;4.65;1.00;;;;;;;17.33;49.02;101269.69;10419780;28;20052;-76
2022/07/06 10:43:10;;;;;;;4.07;0.77;;;;;;;17.91;47.51;101264.03;10407005;28;20087;-75
2022/07/06 10:48:21;;;;;;;1.75;0.70;;;;;;;17.81;46.60;101268.66;10402930;28;20461;-76
2022/07/06 10:53:25;;;;;;;3.72;1.15;;;;;;;19.60;45.06;101254.19;10409295;28;20045;-75
2022/07/06 10:58:43;;;;;;;2.17;0.75;;;;;;;20.47;41.43;101255.69;10397231;28;20495;-79
2022/07/06 11:03:49;;;;;;;1.95;0.70;;;;;;;20.83;41.31;101241.72;10409020;28;20048;-76
2022/07/06 11:08:55;;;;;;;5.25;0.80;;;;;;;20.93;40.00;101236.94;10411882;28;20049;-77
2022/07/06 11:14:02;;;;;;;2.80;0.70;;;;;;;20.94;38.22;101233.19;10407347;28;20063;-77
2022/07/06 11:19:12;;;;;;;3.40;0.93;;;;;;;20.21;40.86;101238.56;10402609;28;20419;-77
2022/07/06 11:24:18;;;;;;;4.85;0.82;;;;;;;19.47;41.85;101238.25;10402974;28;20140;-76
2022/07/06 11:29:23;;;;;;;3.38;0.75;;;;;;;18.84;43.27;101244.81;10400877;28;20049;-77
2022/07/06 11:34:29;;;;;;;4.10;1.00;;;;;;;18.34;44.69;101240.75;10403174;28;20048;-77
2022/07/06 11:39:33;;;;;;;5.28;0.80;;;;;;;17.76;45.88;101237.50;10389483;28;20049;-77
2022/07/06 11:44:37;;;;;;;2.30;0.98;;;;;;;18.39;44.91;101236.72;10395899;28;21217;-77
2022/07/06 11:49:42;;;;;;;1.77;0.68;;;;;;;18.46;45.35;101244.13;10397521;28;20052;-77
2022/07/06 11:54:45;;;;;;;3.22;0.82;;;;;;;17.88;45.98;101231.75;10417847;28;20041;-77
2022/07/06 11:59:52;;;;;;;3.67;0.82;;;;;;;19.57;43.53;101230.84;10395826;28;20517;-77
2022/07/06 12:04:56;;;;;;;1.75;0.68;;;;;;;19.74;41.28;101223.59;10378692;28;20053;-77
2022/07/06 12:09:59;;;;;;;3.00;0.80;;;;;;;20.39;40.62;101211.19;10382490;28;20583;-76
2022/07/06 12:15:02;;;;;;;3.22;0.85;;;;;;;19.37;42.58;101222.03;10378586;28;20161;-77
2022/07/06 12:20:09;;;;;;;3.42;0.82;;;;;;;18.80;43.45;101221.63;10386687;28;20384;-77
2022/07/06 12:25:12;;;;;;;3.80;0.60;;;;;;;19.61;43.04;101218.59;10383896;28;20171;-77
2022/07/06 12:30:15;;;;;;;4.47;0.80;;;;;;;21.99;38.62;101205.72;10389944;28;20152;-77
2022/07/06 12:35:28;;;;;;;3.67;0.63;;;;;;;21.51;38.09;101198.59;10378774;28;20044;-76
2022/07/06 12:40:31;;;;;;;4.25;0.63;;;;;;;22.04;37.53;101191.53;10388122;28;20538;-77
2022/07/06 12:45:34;;;;;;;2.30;0.60;;;;;;;23.65;35.56;101194.00;10399040;28;20094;-77
2022/07/06 12:50:40;;;;;;;3.28;0.75;;;;;;;23.02;35.83;101184.44;10398267;28;20057;-77
2022/07/06 12:55:43;;;;;;;3.70;1.10;;;;;;;21.27;39.06;101186.72;10386166;28;20618;-76
2022/07/06 13:00:46;;;;;;;2.45;0.82;;;;;;;20.91;40.08;101180.78;10400531;28;20052;-77
2022/07/06 13:05:51;;;;;;;2.33;0.88;;;;;;;21.08;39.30;101171.56;10411889;28;20060;-77
2022/07/06 13:10:54;;;;;;;2.92;0.65;;;;;;;19.12;41.69;101172.00;10404958;28;20041;-78
2022/07/06 13:15:57;;;;;;;1.65;0.50;;;;;;;19.22;42.21;101174.59;10402637;28;20049;-79
2022/07/06 13:21:01;;;;;;;3.63;0.60;;;;;;;21.79;38.55;101167.03;10420420;28;20050;-77
2022/07/06 13:26:04;;;;;;;2.10;0.50;;;;;;;23.47;36.44;101169.69;10420075;28;20056;-77
2022/07/06 13:31:07;;;;;;;0.82;0.40;;;;;;;22.89;35.05;101157.66;10406118;28;20056;-79
2022/07/06 13:36:15;;;;;;;1.42;0.50;;;;;;;21.52;36.45;101154.66;10416145;28;20292;-77
2022/07/06 13:41:18;;;;;;;3.08;0.52;;;;;;;20.64;37.88;101158.28;10414885;28;20057;-79
2022/07/06 13:46:22;;;;;;;0.75;0.30;;;;;;;22.22;35.44;101131.03;10407407;28;20065;-78
2022/07/06 13:51:28;;;;;;;3.53;0.55;;;;;;;22.38;34.26;101141.88;10389785;28;20052;-78
2022/07/06 13:56:31;;;;;;;4.28;0.45;;;;;;;22.80;34.15;101129.50;10418746;28;20053;-79
2022/07/06 14:01:34;;;;;;;1.27;0.30;;;;;;;21.92;35.42;101130.91;10403741;28;20098;-79
2022/07/06 14:06:38;;;;;;;1.52;0.28;;;;;;;22.01;34.14;101131.72;10388626;28;20485;-77
2022/07/06 14:11:41;;;;;;;1.20;0.30;;;;;;;21.42;35.49;101127.56;10411744;28;20129;-77
2022/07/06 14:16:44;;;;;;;1.45;0.50;;;;;;;21.91;35.61;101125.63;10383084;28;20148;-78
2022/07/06 14:21:49;;;;;;;0.93;0.30;;;;;;;22.30;34.28;101112.66;10389053;28;20053;-77
2022/07/06 14:26:52;;;;;;;2.03;0.40;;;;;;;21.65;35.75;101118.56;10406387;28;20116;-77
2022/07/06 14:31:54;;;;;;;1.83;0.45;;;;;;;21.99;35.58;101109.16;10400622;28;20053;-78
2022/07/06 14:36:59;;;;;;;1.60;0.30;;;;;;;20.94;36.35;101118.47;10388223;28;20037;-77
2022/07/06 14:42:02;;;;;;;2.15;0.50;;;;;;;21.19;36.65;101112.97;10397041;28;20041;-77
2022/07/06 14:47:05;;;;;;;1.98;0.30;;;;;;;20.87;36.89;101122.97;10405992;28;20056;-77
2022/07/06 14:52:09;;;;;;;5.88;0.40;;;;;;;21.52;36.65;101115.56;10421562;28;21212;-76
2022/07/06 14:57:12;;;;;;;1.95;0.22;;;;;;;21.01;37.52;101105.00;10422105;28;20053;-76
2022/07/06 15:02:15;;;;;;;0.73;0.20;;;;;;;21.91;35.06;101101.00;10425300;28;20057;-77
2022/07/06 15:07:19;;;;;;;0.22;0.20;;;;;;;20.52;37.18;101100.50;10420356;28;20041;-76
2022/07/06 15:12:22;;;;;;;1.90;0.40;;;;;;;19.69;38.07;101089.66;10415669;28;20049;-76
2022/07/06 15:17:25;;;;;;;1.80;0.63;;;;;;;20.11;38.46;101086.84;10405967;28;20051;-78
2022/07/06 15:22:29;;;;;;;1.55;0.30;;;;;;;20.87;37.40;101075.66;10420319;28;20049;-76
2022/07/06 15:27:32;;;;;;;2.03;0.50;;;;;;;21.82;36.41;101073.72;10411930;28;20175;-77
2022/07/06 15:32:35;;;;;;;1.52;0.30;;;;;;;22.10;36.35;101075.88;10395558;28;20208;-77
2022/07/06 15:37:40;;;;;;;1.95;0.40;;;;;;;22.60;36.08;101073.56;10384336;28;20061;-77
2022/07/06 15:42:43;;;;;;;2.08;0.38;;;;;;;21.10;37.28;101064.88;10395148;28;20180;-77
2022/07/06 15:47:46;;;;;;;1.48;0.30;;;;;;;20.72;37.47;101065.47;10409171;28;20127;-78
2022/07/06 15:52:50;;;;;;;2.28;0.25;;;;;;;20.87;37.24;101056.53;10417093;28;20048;-78
2022/07/06 15:57:53;;;;;;;3.53;0.60;;;;;;;20.65;38.00;101052.69;10378960;28;20135;-78
2022/07/06 16:02:56;;;;;;;2.00;0.50;;;;;;;20.55;38.30;101063.81;10391360;28;20057;-77
2022/07/06 16:08:00;;;;;;;1.98;0.43;;;;;;;20.21;39.22;101055.78;10417262;28;20190;-77
2022/07/06 16:13:23;;;;;;;1.65;0.43;;;;;;;20.15;39.55;101053.75;10406137;28;20080;-78
2022/07/06 16:18:26;;;;;;;1.50;0.73;;;;;;;20.23;39.70;101045.56;10396064;28;20422;-77
2022/07/06 16:23:31;;;;;;;1.35;0.50;;;;;;;20.33;39.84;101032.66;10418936;28;21265;-77
2022/07/06 16:28:35;;;;;;;2.20;0.50;;;;;;;19.89;39.27;101030.25;10403806;28;20132;-77
2022/07/06 16:33:37;;;;;;;3.20;0.60;;;;;;;18.54;42.16;101037.44;10416511;28;20101;-77
2022/07/06 16:38:42;;;;;;;2.60;0.80;;;;;;;19.55;41.34;101035.78;10407782;28;20080;-76
2022/07/06 16:43:45;;;;;;;3.53;0.82;;;;;;;21.00;39.13;101022.19;10400097;28;20053;-77
2022/07/06 16:48:48;;;;;;;2.38;0.55;;;;;;;21.26;38.94;101023.81;10390444;28;20515;-77
2022/07/06 16:53:52;;;;;;;3.45;0.60;;;;;;;19.65;40.61;101021.03;10391310;28;20053;-77
2022/07/06 16:58:55;;;;;;;2.50;0.50;;;;;;;19.59;41.31;101013.53;10401340;28;20080;-76
2022/07/06 17:04:02;;;;;;;2.83;0.70;;;;;;;19.04;41.72;101005.03;10412355;28;20126;-77
2022/07/06 17:09:06;;;;;;;2.50;0.43;;;;;;;19.44;41.62;101007.88;10412267;28;20057;-77
2022/07/06 17:14:09;;;;;;;3.10;0.57;;;;;;;19.35;42.21;101002.56;10400236;28;20183;-77
2022/07/06 17:19:12;;;;;;;2.53;0.60;;;;;;;19.47;41.42;100998.47;10409505;28;20124;-78
2022/07/06 17:24:16;;;;;;;0.63;0.40;;;;;;;19.41;41.72;101000.00;10414399;28;20047;-77
2022/07/06 17:29:20;;;;;;;6.75;1.60;;;;;;;19.65;41.86;100993.78;10398112;28;20095;-77
2022/07/06 17:34:23;;;;;;;2.78;0.60;;;;;;;19.15;42.59;100991.97;10402191;28;20048;-77
2022/07/06 17:39:27;;;;;;;1.85;0.40;;;;;;;18.86;42.81;100995.09;10413672;28;20095;-77
2022/07/06 17:44:30;;;;;;;3.83;0.80;;;;;;;18.88;43.02;100998.50;10401818;28;20053;-77
2022/07/06 17:49:34;;;;;;;2.92;0.47;;;;;;;18.70;43.48;100998.53;10385785;28;20108;-77
2022/07/06 17:54:38;;;;;;;1.60;0.50;;;;;;;19.02;43.23;100991.56;10408194;28;20076;-77
2022/07/06 17:59:41;;;;;;;3.78;0.57;;;;;;;19.17;43.14;100991.78;10407123;28;20123;-77
2022/07/06 18:04:44;;;;;;;1.50;0.47;;;;;;;19.16;42.95;100974.59;10408811;28;20056;-78
2022/07/06 18:09:51;;;;;;;6.88;0.82;;;;;;;19.04;43.70;100973.22;10417462;28;20061;-77
2022/07/06 18:14:54;;;;;;;0.40;0.38;;;;;;;18.96;44.44;100965.03;10386227;28;20095;-78
2022/07/06 18:19:57;;;;;;;3.42;0.70;;;;;;;19.03;45.23;100963.31;10416984;28;20502;-78
2022/07/06 18:25:01;;;;;;;3.25;0.57;;;;;;;19.04;45.02;100954.16;10410524;28;20046;-77
2022/07/06 18:30:05;;;;;;;0.88;0.40;;;;;;;18.99;44.91;100953.78;10411668;28;20511;-78
2022/07/06 18:35:09;;;;;;;1.70;0.65;;;;;;;18.82;45.77;100952.03;10422816;28;20502;-78
2022/07/06 18:40:14;;;;;;;1.38;0.50;;;;;;;18.78;45.94;100951.50;10397623;28;20049;-77
2022/07/06 18:45:17;;;;;;;1.73;0.50;;;;;;;19.05;44.65;100949.56;10401022;28;20053;-78
2022/07/06 18:50:21;;;;;;;1.38;0.40;;;;;;;18.87;44.64;100946.94;10399770;28;20054;-77
2022/07/06 18:55:25;;;;;;;4.38;0.40;;;;;;;18.92;44.77;100939.13;10416870;28;20057;-78
2022/07/06 19:00:28;;;;;;;3.17;0.57;;;;;;;18.93;45.25;100938.13;10418105;28;20054;-78
2022/07/06 19:05:31;;;;;;;7.00;0.40;;;;;;;18.69;45.49;100934.25;10408962;28;20076;-77
2022/07/06 19:10:36;;;;;;;0.85;0.40;;;;;;;18.65;45.07;100937.47;10417552;28;20080;-77
2022/07/06 19:15:39;;;;;;;1.90;0.52;;;;;;;18.05;45.21;100947.38;10403763;28;20055;-77
2022/07/06 19:20:41;;;;;;;1.08;0.45;;;;;;;18.01;45.54;100945.97;10418953;28;20060;-78
2022/07/06 19:25:46;;;;;;;1.77;0.50;;;;;;;17.85;46.97;100932.22;10425091;28;20048;-78
2022/07/06 19:30:50;;;;;;;2.17;0.57;;;;;;;18.13;45.88;100938.41;10430937;28;20056;-77
2022/07/06 19:35:53;;;;;;;3.30;0.65;;;;;;;18.27;45.31;100937.81;10424693;28;20047;-77
2022/07/06 19:40:57;;;;;;;1.95;0.68;;;;;;;18.32;45.38;100932.75;10411574;28;20510;-77
2022/07/06 19:46:00;;;;;;;3.70;0.73;;;;;;;17.89;46.19;100944.50;10409745;28;20048;-77
2022/07/06 19:51:03;;;;;;;1.52;0.40;;;;;;;17.44;47.53;100943.63;10406900;28;20041;-77
2022/07/06 19:56:09;;;;;;;7.03;1.02;;;;;;;17.25;48.29;100950.06;10399218;28;20859;-80
2022/07/06 20:01:12;;;;;;;6.38;0.73;;;;;;;17.31;48.37;100945.03;10384753;28;20549;-77
2022/07/06 20:06:15;;;;;;;3.13;0.70;;;;;;;16.97;49.87;100951.91;10406528;28;20065;-78
2022/07/06 20:11:19;;;;;;;3.92;0.77;;;;;;;16.56;52.12;100946.03;10397679;28;20049;-78
2022/07/06 20:16:22;;;;;;;1.10;0.43;;;;;;;16.84;52.12;100943.31;10404143;28;20041;-78
2022/07/06 20:21:26;;;;;;;1.70;0.70;;;;;;;16.53;52.49;100945.47;10384032;28;20049;-78
2022/07/06 20:26:30;;;;;;;3.03;0.80;;;;;;;16.43;53.64;100940.09;10398011;28;20102;-77
2022/07/06 20:31:33;;;;;;;5.32;0.80;;;;;;;16.45;54.46;100940.78;10410661;28;20083;-78
2022/07/06 20:36:36;;;;;;;7.65;1.15;;;;;;;16.48;56.32;100929.66;10408664;28;21264;-78
2022/07/06 20:41:40;;;;;;;7.50;1.75;;;;;;;16.14;56.10;100938.28;10404709;28;20053;-77
2022/07/06 20:46:43;;;;;;;2.03;1.65;;;;;;;16.05;57.09;100941.03;10391383;28;20065;-78
2022/07/06 20:51:46;;;;;;;3.55;1.55;;;;;;;16.27;57.87;100929.03;10398380;28;21091;-77
2022/07/06 20:56:51;;;;;;;3.85;2.38;;;;;;;16.20;57.39;100917.88;10396110;28;20173;-78
2022/07/06 21:01:54;;;;;;;7.30;2.35;;;;;;;16.20;57.54;100920.59;10404942;28;20049;-78
2022/07/06 21:06:57;;;;;;;4.10;1.42;;;;;;;16.48;56.66;100918.81;10388901;28;20034;-79
2022/07/06 21:12:01;;;;;;;3.92;1.75;;;;;;;16.58;56.40;100926.88;10389778;28;20045;-77
2022/07/06 21:17:05;;;;;;;4.30;1.35;;;;;;;16.76;56.30;100918.81;10390917;28;20049;-77
2022/07/06 21:22:11;;;;;;;3.72;1.00;;;;;;;16.68;56.53;100911.41;10387786;28;20735;-78
2022/07/06 21:27:15;;;;;;;1.70;0.90;;;;;;;16.63;56.48;100908.31;10400211;28;20060;-77
2022/07/06 21:32:18;;;;;;;4.43;0.95;;;;;;;16.61;56.22;100894.03;10396499;28;20052;-77
2022/07/06 21:37:22;;;;;;;1.98;1.10;;;;;;;16.04;57.19;100890.53;10400936;28;20053;-76
2022/07/06 21:42:27;;;;;;;3.10;1.00;;;;;;;16.47;56.92;100889.97;10375488;28;20081;-76
2022/07/06 21:47:29;;;;;;;1.35;1.10;;;;;;;16.47;56.60;100881.84;10375654;28;20713;-77
2022/07/06 21:52:32;;;;;;;4.75;1.05;;;;;;;16.53;56.17;100881.22;10389489;28;20049;-77
2022/07/06 21:57:37;;;;;;;4.32;1.02;;;;;;;16.62;55.56;100879.50;10395195;28;21348;-76
2022/07/06 22:02:40;;;;;;;5.53;1.00;;;;;;;16.59;55.37;100883.34;10401393;28;20518;-77
2022/07/06 22:07:43;;;;;;;2.70;0.98;;;;;;;16.63;54.78;100867.63;10393127;28;20175;-76
2022/07/06 22:12:47;;;;;;;1.73;1.00;;;;;;;16.46;55.15;100863.03;10392471;28;20173;-76
2022/07/06 22:17:50;;;;;;;2.75;1.10;;;;;;;16.44;56.01;100849.59;10405911;28;20045;-76
2022/07/06 22:22:53;;;;;;;3.78;1.30;;;;;;;16.54;54.95;100834.13;10383557;28;20045;-77
2022/07/06 22:27:57;;;;;;;2.65;1.20;;;;;;;16.62;54.36;100829.78;10384897;28;20046;-78
2022/07/06 22:33:00;;;;;;;4.93;1.45;;;;;;;16.63;54.65;100832.34;10381847;28;20156;-77
2022/07/06 22:38:02;;;;;;;4.68;1.67;;;;;;;16.62;54.57;100830.66;10404858;28;20085;-77
2022/07/06 22:43:07;;;;;;;3.40;1.27;;;;;;;16.61;54.89;100822.66;10396439;28;20189;-77
2022/07/06 22:48:09;;;;;;;5.20;1.20;;;;;;;16.66;54.53;100818.50;10398959;28;20064;-76
2022/07/06 22:53:12;;;;;;;4.50;1.40;;;;;;;16.74;54.58;100812.31;10393259;28;20075;-79
2022/07/06 22:58:17;;;;;;;3.65;1.50;;;;;;;16.71;54.58;100812.63;10406061;28;20053;-77
2022/07/06 23:03:20;;;;;;;3.60;1.80;;;;;;;16.39;55.27;100810.41;10412273;28;20044;-76
2022/07/06 23:08:24;;;;;;;2.33;1.40;;;;;;;16.45;55.88;100804.34;10401407;28;21184;-77
2022/07/06 23:13:28;;;;;;;4.90;1.77;;;;;;;16.10;56.18;100801.41;10397463;28;20091;-78
2022/07/06 23:18:32;;;;;;;3.53;1.80;;;;;;;15.89;57.23;100806.19;10385006;28;20064;-77
2022/07/06 23:23:35;;;;;;;2.95;2.28;;;;;;;15.35;60.12;100799.66;10397255;28;20053;-77
2022/07/06 23:28:39;;;;;;;4.90;2.75;;;;;;;15.13;62.62;100814.31;10389991;28;20045;-77